createdAt,value
2023-06-01T00:02:05.670Z,3.50
2023-06-01T00:04:32.417Z,3.13
2023-06-01T00:07:02.709Z,3.50
2023-06-01T00:11:56.354Z,4.23
2023-06-01T00:14:23.176Z,3.30
2023-06-01T00:16:50.188Z,3.83
2023-06-01T00:19:16.940Z,4.30
2023-06-01T00:21:43.641Z,3.50
2023-06-01T00:24:10.837Z,3.70
2023-06-01T00:26:37.493Z,3.60
2023-06-01T00:29:04.284Z,3.77
2023-06-01T00:31:31.067Z,3.37
2023-06-01T00:33:57.762Z,3.47
2023-06-01T00:36:24.396Z,4.07
2023-06-01T00:38:52.241Z,3.47
2023-06-01T00:41:19.034Z,3.70
2023-06-01T00:43:45.864Z,3.90
2023-06-01T00:46:15.041Z,3.40
2023-06-01T00:48:41.783Z,3.50
2023-06-01T00:51:08.551Z,3.87
2023-06-01T00:53:35.638Z,3.67
2023-06-01T00:56:02.481Z,3.60
2023-06-01T00:58:29.211Z,3.60
2023-06-01T01:00:55.996Z,4.13
2023-06-01T01:03:22.866Z,4.00
2023-06-01T01:05:52.286Z,4.23
2023-06-01T01:08:42.108Z,5.15
2023-06-01T01:11:10.946Z,3.70
2023-06-01T01:14:17.469Z,4.20
2023-06-01T01:16:50.981Z,3.53
2023-06-01T01:19:22.484Z,5.80
2023-06-01T01:22:12.389Z,3.40
2023-06-01T01:25:00.906Z,4.20
2023-06-01T01:27:56.333Z,4.00
2023-06-01T01:30:29.052Z,4.63
2023-06-01T01:32:59.741Z,4.07
2023-06-01T01:35:27.932Z,3.90
2023-06-01T01:37:56.035Z,4.23
2023-06-01T01:40:23.512Z,4.20
2023-06-01T01:42:52.494Z,5.93
2023-06-01T01:45:21.556Z,4.20
2023-06-01T01:48:11.428Z,4.67
2023-06-01T01:50:43.015Z,4.68
2023-06-01T01:53:10.755Z,5.17
2023-06-01T01:55:38.121Z,4.87
2023-06-01T01:58:05.768Z,4.67
2023-06-01T02:00:38.764Z,5.00
2023-06-01T02:03:13.946Z,4.60
2023-06-01T02:05:40.781Z,4.30
2023-06-01T02:08:07.592Z,5.83
2023-06-01T02:10:34.361Z,3.97
2023-06-01T02:13:01.157Z,7.40
2023-06-01T02:15:28.023Z,5.07
2023-06-01T02:17:55.065Z,4.10
2023-06-01T02:20:21.817Z,4.57
2023-06-01T02:22:48.685Z,6.00
2023-06-01T02:25:15.945Z,4.43
2023-06-01T02:27:42.711Z,4.33
2023-06-01T02:30:09.913Z,4.20
2023-06-01T02:32:36.682Z,4.43
2023-06-01T02:35:03.480Z,10.07
2023-06-01T02:37:30.314Z,5.47
2023-06-01T02:39:57.024Z,4.43
2023-06-01T02:42:23.867Z,7.47
2023-06-01T02:44:50.583Z,5.20
2023-06-01T02:47:18.009Z,4.93
2023-06-01T02:49:44.765Z,4.17
2023-06-01T02:52:11.669Z,4.07
2023-06-01T02:54:38.502Z,4.37
2023-06-01T02:57:05.438Z,4.40
2023-06-01T02:59:32.232Z,5.50
2023-06-01T03:01:58.927Z,5.67
2023-06-01T03:04:25.901Z,6.30
2023-06-01T03:06:52.605Z,5.73
2023-06-01T03:09:19.540Z,7.13
2023-06-01T03:11:46.361Z,6.50
2023-06-01T03:14:13.276Z,5.27
2023-06-01T03:16:39.935Z,7.33
2023-06-01T03:19:06.945Z,4.80
2023-06-01T03:21:33.951Z,5.47
2023-06-01T03:24:00.899Z,6.00
2023-06-01T03:26:28.192Z,4.63
2023-06-01T03:28:54.977Z,4.40
2023-06-01T03:31:23.181Z,4.77
2023-06-01T03:33:50.000Z,5.10
2023-06-01T03:36:16.996Z,5.03
2023-06-01T03:38:44.016Z,4.97
2023-06-01T03:41:12.815Z,4.90
2023-06-01T03:43:39.642Z,4.03
2023-06-01T03:46:06.662Z,4.43
2023-06-01T03:48:33.433Z,4.00
2023-06-01T03:51:00.521Z,3.77
2023-06-01T03:53:27.446Z,3.07
2023-06-01T03:55:54.199Z,3.50
2023-06-01T03:58:21.450Z,3.30
2023-06-01T04:00:48.608Z,3.17
2023-06-01T04:03:16.580Z,3.23
2023-06-01T04:05:49.684Z,3.50
2023-06-01T04:08:16.563Z,3.70
2023-06-01T04:10:43.328Z,3.20
2023-06-01T04:13:10.052Z,3.47
2023-06-01T04:15:36.872Z,3.13
2023-06-01T04:18:03.768Z,2.87
2023-06-01T04:20:32.517Z,2.93
2023-06-01T04:22:59.215Z,2.57
2023-06-01T04:25:26.010Z,2.83
2023-06-01T04:27:53.100Z,2.70
2023-06-01T04:30:20.121Z,3.00
2023-06-01T04:32:49.853Z,2.70
2023-06-01T04:35:17.153Z,2.43
2023-06-01T04:37:45.341Z,7.97
2023-06-01T04:40:13.517Z,2.47
2023-06-01T04:42:42.603Z,3.77
2023-06-01T04:45:13.225Z,2.75
2023-06-01T04:47:41.450Z,2.90
2023-06-01T04:50:09.925Z,2.90
2023-06-01T04:52:41.781Z,3.53
2023-06-01T04:55:10.791Z,3.00
2023-06-01T04:57:40.315Z,4.38
2023-06-01T05:00:12.534Z,2.83
2023-06-01T05:02:41.522Z,3.15
2023-06-01T05:05:09.331Z,3.53
2023-06-01T05:07:40.231Z,3.50
2023-06-01T05:10:08.413Z,3.72
2023-06-01T05:12:36.270Z,2.72
2023-06-01T05:15:04.716Z,3.20
2023-06-01T05:17:31.673Z,3.40
2023-06-01T05:19:58.409Z,4.25
2023-06-01T05:22:26.249Z,3.33
2023-06-01T05:24:53.127Z,3.80
2023-06-01T05:27:20.120Z,4.28
2023-06-01T05:29:47.835Z,3.70
2023-06-01T05:32:14.607Z,3.83
2023-06-01T05:34:44.418Z,3.63
2023-06-01T05:37:11.360Z,4.97
2023-06-01T05:39:39.432Z,4.15
2023-06-01T05:42:07.424Z,3.80
2023-06-01T05:44:34.521Z,5.10
2023-06-01T05:47:01.284Z,3.58
2023-06-01T05:49:32.382Z,4.28
2023-06-01T05:52:00.067Z,4.32
2023-06-01T05:54:27.224Z,4.10
2023-06-01T05:56:54.217Z,4.07
2023-06-01T05:59:21.026Z,4.50
2023-06-01T06:01:49.593Z,3.33
2023-06-01T06:04:17.655Z,4.03
2023-06-01T06:06:44.664Z,4.27
2023-06-01T06:09:13.305Z,4.13
2023-06-01T06:11:41.031Z,4.13
2023-06-01T06:14:07.819Z,4.05
2023-06-01T06:16:34.615Z,4.03
2023-06-01T06:19:01.348Z,3.40
2023-06-01T06:21:28.107Z,3.33
2023-06-01T06:24:00.307Z,3.78
2023-06-01T06:26:31.162Z,4.03
2023-06-01T06:29:03.891Z,4.20
2023-06-01T06:31:31.608Z,3.70
2023-06-01T06:33:58.457Z,3.70
2023-06-01T06:36:25.402Z,4.57
2023-06-01T06:38:52.214Z,4.55
2023-06-01T06:41:18.937Z,4.68
2023-06-01T06:43:45.698Z,6.97
2023-06-01T06:46:12.468Z,4.63
2023-06-01T06:48:39.144Z,5.68
2023-06-01T06:51:06.965Z,5.07
2023-06-01T06:53:34.524Z,5.03
2023-06-01T06:56:01.416Z,4.28
2023-06-01T06:58:28.644Z,5.82
2023-06-01T07:00:55.447Z,6.97
2023-06-01T07:03:22.628Z,4.10
2023-06-01T07:05:49.543Z,4.47
2023-06-01T07:08:16.520Z,5.13
2023-06-01T07:10:43.408Z,4.50
2023-06-01T07:13:10.260Z,5.32
2023-06-01T07:15:37.023Z,4.05
2023-06-01T07:18:03.898Z,4.07
2023-06-01T07:20:30.702Z,3.50
2023-06-01T07:22:57.884Z,3.20
2023-06-01T07:25:24.986Z,3.78
2023-06-01T07:27:51.905Z,3.28
2023-06-01T07:30:19.174Z,3.22
2023-06-01T07:32:46.152Z,4.57
2023-06-01T07:35:13.443Z,4.25
2023-06-01T07:37:41.901Z,3.25
2023-06-01T07:40:09.528Z,3.90
2023-06-01T07:42:36.170Z,3.20
2023-06-01T07:45:03.524Z,3.28
2023-06-01T07:47:31.674Z,3.17
2023-06-01T07:49:58.640Z,9.50
2023-06-01T07:52:26.107Z,2.53
2023-06-01T07:54:53.939Z,3.17
2023-06-01T07:57:21.232Z,2.78
2023-06-01T07:59:47.956Z,2.78
2023-06-01T08:02:14.896Z,2.80
2023-06-01T08:04:41.878Z,2.65
2023-06-01T08:07:09.471Z,2.88
2023-06-01T08:09:39.490Z,2.63
2023-06-01T08:12:07.137Z,2.70
2023-06-01T08:14:35.527Z,2.85
2023-06-01T08:17:03.398Z,2.63
2023-06-01T08:19:30.363Z,2.92
2023-06-01T08:21:57.341Z,2.92
2023-06-01T08:24:26.389Z,4.10
2023-06-01T08:26:57.651Z,2.88
2023-06-01T08:29:34.707Z,2.65
2023-06-01T08:32:09.434Z,2.92
2023-06-01T08:34:36.239Z,3.17
2023-06-01T08:37:03.043Z,3.08
2023-06-01T08:39:29.743Z,3.08
2023-06-01T08:42:21.524Z,3.30
2023-06-01T08:44:48.854Z,3.78
2023-06-01T08:47:16.471Z,3.58
2023-06-01T08:49:45.845Z,4.13
2023-06-01T08:54:40.908Z,4.75
2023-06-01T08:57:11.778Z,3.80
2023-06-01T08:59:40.376Z,3.63
2023-06-01T09:02:10.969Z,3.45
2023-06-01T09:04:43.202Z,4.07
2023-06-01T09:07:09.961Z,3.28
2023-06-01T09:09:37.029Z,4.50
2023-06-01T09:12:34.183Z,6.47
2023-06-01T09:15:18.958Z,2.85
2023-06-01T09:17:51.530Z,3.10
2023-06-01T09:20:29.697Z,4.00
2023-06-01T09:22:56.907Z,7.63
2023-06-01T09:25:29.506Z,4.82
2023-06-01T09:27:58.547Z,3.13
2023-06-01T09:30:38.009Z,3.67
2023-06-01T09:33:10.982Z,3.35
2023-06-01T09:35:48.649Z,4.15
2023-06-01T09:38:22.936Z,3.45
2023-06-01T09:41:04.977Z,3.35
2023-06-01T09:43:38.227Z,3.35
2023-06-01T09:46:16.047Z,4.55
2023-06-01T09:48:45.264Z,4.03
2023-06-01T09:51:30.543Z,4.75
2023-06-01T09:53:57.629Z,6.75
2023-06-01T09:56:24.416Z,3.58
2023-06-01T09:58:59.609Z,3.67
2023-06-01T10:01:30.037Z,6.38
2023-06-01T10:03:59.690Z,3.28
2023-06-01T10:06:26.993Z,4.65
2023-06-01T10:08:54.372Z,4.50
2023-06-01T10:11:21.314Z,3.50
2023-06-01T10:13:48.514Z,4.43
2023-06-01T10:16:15.333Z,3.22
2023-06-01T10:18:42.700Z,3.28
2023-06-01T10:21:09.539Z,3.40
2023-06-01T10:23:36.527Z,4.57
2023-06-01T10:26:16.545Z,4.18
2023-06-01T10:28:46.502Z,3.38
2023-06-01T10:31:37.146Z,3.53
2023-06-01T10:34:05.084Z,4.03
2023-06-01T10:36:53.416Z,5.32
2023-06-01T10:39:30.269Z,7.63
2023-06-01T10:41:59.235Z,5.97
2023-06-01T10:44:41.663Z,3.50
2023-06-01T10:47:14.662Z,3.55
2023-06-01T10:49:52.278Z,6.28
2023-06-01T10:52:34.358Z,3.55
2023-06-01T10:55:07.058Z,3.00
2023-06-01T10:57:41.904Z,7.80
2023-06-01T11:00:16.986Z,6.95
2023-06-01T11:02:51.725Z,2.88
2023-06-01T11:05:38.252Z,3.75
2023-06-01T11:08:11.044Z,2.90
2023-06-01T11:10:55.818Z,4.18
2023-06-01T11:13:31.743Z,3.10
2023-06-01T11:16:10.089Z,4.45
2023-06-01T11:18:51.074Z,4.03
2023-06-01T11:21:25.906Z,3.25
2023-06-01T11:23:55.608Z,3.55
2023-06-01T11:26:29.380Z,3.15
2023-06-01T11:29:10.551Z,2.90
2023-06-01T11:34:06.039Z,2.70
2023-06-01T11:36:38.179Z,3.10
2023-06-01T11:39:19.963Z,4.85
2023-06-01T11:41:49.396Z,2.95
2023-06-01T11:44:16.286Z,3.13
2023-06-01T11:46:57.510Z,3.40
2023-06-01T11:49:24.716Z,4.32
2023-06-01T11:51:57.190Z,2.60
2023-06-01T11:54:27.727Z,3.08
2023-06-01T11:56:58.196Z,3.13
2023-06-01T11:59:26.836Z,6.75
2023-06-01T12:01:54.745Z,3.30
2023-06-01T12:04:26.425Z,12.27
2023-06-01T12:07:06.988Z,3.35
2023-06-01T12:09:34.755Z,3.63
2023-06-01T12:12:02.000Z,3.45
2023-06-01T12:14:28.805Z,2.85
2023-06-01T12:16:59.811Z,3.65
2023-06-01T12:19:28.156Z,3.30
2023-06-01T12:21:56.845Z,4.43
2023-06-01T12:24:36.232Z,3.03
2023-06-01T12:29:45.148Z,7.20
2023-06-01T12:32:13.567Z,2.67
2023-06-01T12:34:46.952Z,2.50
2023-06-01T12:37:17.217Z,3.75
2023-06-01T12:39:44.617Z,2.88
2023-06-01T12:42:13.041Z,3.05
2023-06-01T12:44:42.831Z,2.80
2023-06-01T12:47:11.199Z,4.50
2023-06-01T12:49:39.282Z,2.80
2023-06-01T12:52:06.366Z,4.13
2023-06-01T12:54:34.171Z,2.88
2023-06-01T12:57:01.370Z,2.72
2023-06-01T12:59:30.169Z,4.65
2023-06-01T13:01:56.992Z,3.03
2023-06-01T13:04:24.405Z,2.83
2023-06-01T13:06:52.176Z,2.75
2023-06-01T13:09:19.499Z,3.90
2023-06-01T13:11:46.453Z,2.47
2023-06-01T13:14:13.195Z,2.60
2023-06-01T13:16:41.070Z,2.90
2023-06-01T13:19:08.352Z,2.92
2023-06-01T13:21:35.168Z,3.58
2023-06-01T13:24:03.306Z,3.30
2023-06-01T13:26:30.458Z,3.00
2023-06-01T13:28:57.262Z,2.72
2023-06-01T13:31:24.497Z,2.65
2023-06-01T13:33:51.641Z,2.40
2023-06-01T13:36:21.981Z,2.30
2023-06-01T13:38:51.979Z,2.45
2023-06-01T13:41:18.692Z,4.88
2023-06-01T13:43:45.366Z,2.88
2023-06-01T13:46:12.466Z,2.42
2023-06-01T13:48:39.173Z,2.75
2023-06-01T13:51:07.216Z,2.67
2023-06-01T13:53:34.778Z,2.95
2023-06-01T13:56:02.059Z,2.40
2023-06-01T13:58:28.977Z,3.60
2023-06-01T14:00:56.186Z,2.92
2023-06-01T14:03:23.113Z,4.03
2023-06-01T14:05:54.983Z,4.13
2023-06-01T14:08:23.432Z,2.72
2023-06-01T14:10:50.183Z,3.10
2023-06-01T14:13:16.972Z,2.55
2023-06-01T14:15:44.011Z,2.10
2023-06-01T14:18:11.080Z,2.92
2023-06-01T14:20:39.186Z,3.13
2023-06-01T14:23:06.282Z,3.10
2023-06-01T14:25:32.953Z,2.60
2023-06-01T14:27:59.681Z,2.50
2023-06-01T14:30:28.266Z,2.88
2023-06-01T14:32:55.517Z,4.65
2023-06-01T14:35:22.351Z,3.50
2023-06-01T14:37:50.621Z,4.00
2023-06-01T14:40:18.191Z,3.07
2023-06-01T14:42:45.294Z,3.50
2023-06-01T14:45:15.120Z,2.90
2023-06-01T14:47:45.095Z,4.00
2023-06-01T14:50:12.327Z,2.72
2023-06-01T14:52:39.515Z,2.70
2023-06-01T14:55:07.554Z,3.45
2023-06-01T14:57:34.300Z,2.42
2023-06-01T15:00:04.634Z,2.50
2023-06-01T15:02:32.682Z,4.22
2023-06-01T15:05:00.506Z,2.38
2023-06-01T15:07:27.290Z,2.60
2023-06-01T15:09:54.707Z,5.45
2023-06-01T15:12:22.003Z,2.83
2023-06-01T15:14:49.551Z,3.57
2023-06-01T15:17:16.745Z,8.80
2023-06-01T15:19:43.777Z,5.68
2023-06-01T15:22:11.060Z,2.65
2023-06-01T15:24:39.067Z,2.90
2023-06-01T15:27:07.139Z,2.50
2023-06-01T15:32:02.349Z,3.75
2023-06-01T15:34:29.075Z,2.47
2023-06-01T15:36:56.633Z,2.60
2023-06-01T15:39:23.736Z,3.40
2023-06-01T15:41:57.446Z,2.50
2023-06-01T15:44:24.622Z,3.33
2023-06-01T15:46:51.507Z,3.40
2023-06-01T15:49:18.361Z,2.50
2023-06-01T15:51:45.191Z,2.60
2023-06-01T15:54:11.860Z,3.83
2023-06-01T15:56:38.650Z,4.63
2023-06-01T15:59:06.050Z,2.43
2023-06-01T16:01:33.626Z,2.40
2023-06-01T16:04:00.903Z,3.07
2023-06-01T16:06:27.944Z,3.03
2023-06-01T16:08:54.806Z,2.10
2023-06-01T16:11:21.790Z,2.67
2023-06-01T16:13:48.659Z,2.47
2023-06-01T16:16:16.773Z,2.47
2023-06-01T16:18:43.896Z,2.67
2023-06-01T16:21:10.780Z,3.17
2023-06-01T16:23:37.557Z,2.70
2023-06-01T16:26:04.288Z,2.40
2023-06-01T16:28:31.203Z,3.33
2023-06-01T16:30:57.992Z,3.07
2023-06-01T16:33:27.590Z,2.27
2023-06-01T16:35:56.030Z,2.37
2023-06-01T16:38:22.783Z,2.10
2023-06-01T16:40:49.561Z,2.67
2023-06-01T16:43:19.277Z,2.40
2023-06-01T16:45:46.811Z,3.40
2023-06-01T16:48:13.902Z,3.03
2023-06-01T16:50:45.052Z,3.37
2023-06-01T16:53:12.757Z,2.83
2023-06-01T16:55:39.601Z,2.87
2023-06-01T16:58:06.731Z,2.73
2023-06-01T17:00:33.884Z,2.00
2023-06-01T17:03:00.947Z,2.80
2023-06-01T17:05:28.164Z,2.50
2023-06-01T17:07:55.008Z,2.37
2023-06-01T17:10:21.860Z,2.73
2023-06-01T17:12:48.634Z,2.47
2023-06-01T17:15:15.413Z,3.87
2023-06-01T17:17:42.310Z,2.13
2023-06-01T17:20:09.665Z,2.47
2023-06-01T17:22:36.486Z,3.50
2023-06-01T17:25:04.626Z,2.20
2023-06-01T17:27:31.387Z,2.87
2023-06-01T17:29:58.265Z,2.40
2023-06-01T17:32:26.829Z,2.43
2023-06-01T17:34:53.634Z,2.50
2023-06-01T17:37:20.382Z,2.20
2023-06-01T17:39:47.176Z,2.70
2023-06-01T17:42:13.880Z,3.20
2023-06-01T17:44:40.576Z,2.10
2023-06-01T17:47:07.701Z,2.60
2023-06-01T17:49:34.546Z,2.67
2023-06-01T17:52:01.428Z,2.40
2023-06-01T17:54:30.542Z,2.47
2023-06-01T17:56:57.307Z,2.40
2023-06-01T17:59:23.997Z,3.13
2023-06-01T18:01:51.017Z,2.40
2023-06-01T18:04:18.343Z,2.73
2023-06-01T18:06:45.186Z,2.60
2023-06-01T18:09:14.000Z,2.57
2023-06-01T18:11:41.012Z,2.30
2023-06-01T18:14:07.657Z,2.23
2023-06-01T18:16:34.573Z,4.03
2023-06-01T18:19:01.365Z,3.97
2023-06-01T18:21:28.246Z,11.03
2023-06-01T18:23:55.025Z,14.70
2023-06-01T18:26:21.833Z,9.60
2023-06-01T18:28:49.684Z,6.03
2023-06-01T18:31:16.413Z,4.63
2023-06-01T18:33:43.274Z,24.83
2023-06-01T18:36:10.059Z,46.67
2023-06-01T18:38:37.686Z,21.77
2023-06-01T18:41:12.714Z,21.90
2023-06-01T18:43:39.515Z,7.47
2023-06-01T18:46:06.532Z,8.83
2023-06-01T18:48:33.689Z,11.63
2023-06-01T18:51:01.052Z,8.73
2023-06-01T18:53:27.927Z,7.23
2023-06-01T18:55:54.683Z,7.20
2023-06-01T18:58:21.540Z,5.40
2023-06-01T19:00:48.779Z,8.17
2023-06-01T19:03:18.682Z,10.73
2023-06-01T19:08:21.041Z,10.47
2023-06-01T19:11:05.827Z,8.30
2023-06-01T19:13:44.738Z,8.63
2023-06-01T19:16:25.887Z,7.77
2023-06-01T19:18:55.158Z,11.00
2023-06-01T19:21:23.795Z,9.77
2023-06-01T19:23:52.233Z,7.00
2023-06-01T19:26:25.384Z,20.97
2023-06-01T19:29:00.755Z,8.93
2023-06-01T19:31:36.492Z,7.07
2023-06-01T19:34:05.133Z,4.70
2023-06-01T19:36:55.359Z,5.43
2023-06-01T19:39:34.428Z,3.80
2023-06-01T19:42:04.817Z,4.75
2023-06-01T19:44:34.276Z,6.80
2023-06-01T19:47:04.779Z,4.95
2023-06-01T19:49:37.825Z,6.73
2023-06-01T19:52:06.929Z,4.93
2023-06-01T19:54:33.683Z,4.30
2023-06-01T19:57:01.826Z,4.97
2023-06-01T19:59:29.884Z,4.40
2023-06-01T20:02:01.717Z,5.27
2023-06-01T20:04:32.080Z,6.50
2023-06-01T20:07:00.680Z,6.73
2023-06-01T20:09:27.694Z,4.00
2023-06-01T20:11:58.681Z,4.50
2023-06-01T20:14:31.623Z,5.37
2023-06-01T20:17:01.973Z,4.30
2023-06-01T20:19:30.176Z,3.53
2023-06-01T20:21:59.657Z,3.40
2023-06-01T20:24:28.706Z,4.68
2023-06-01T20:27:04.391Z,5.90
2023-06-01T20:29:38.667Z,6.73
2023-06-01T20:32:05.969Z,5.90
2023-06-01T20:34:33.283Z,5.20
2023-06-01T20:37:00.941Z,9.70
2023-06-01T20:39:27.721Z,5.83
2023-06-01T20:41:57.284Z,6.27
2023-06-01T20:44:24.290Z,4.32
2023-06-01T20:46:53.426Z,3.13
2023-06-01T20:49:26.539Z,3.55
2023-06-01T20:51:53.968Z,3.93
2023-06-01T20:54:22.977Z,3.80
2023-06-01T20:56:51.893Z,5.13
2023-06-01T20:59:31.413Z,4.63
2023-06-01T21:02:10.372Z,3.65
2023-06-01T21:04:41.237Z,6.72
2023-06-01T21:07:08.796Z,4.30
2023-06-01T21:09:35.995Z,3.90
2023-06-01T21:12:03.288Z,3.70
2023-06-01T21:14:32.086Z,4.70
2023-06-01T21:16:59.255Z,6.00
2023-06-01T21:19:26.094Z,7.50
2023-06-01T21:21:52.891Z,7.33
2023-06-01T21:24:19.675Z,5.60
2023-06-01T21:26:46.492Z,4.77
2023-06-01T21:29:13.274Z,4.00
2023-06-01T21:31:40.130Z,4.67
2023-06-01T21:34:07.240Z,3.57
2023-06-01T21:36:34.063Z,3.77
2023-06-01T21:39:00.935Z,4.00
2023-06-01T21:41:27.924Z,6.03
2023-06-01T21:43:54.807Z,3.50
2023-06-01T21:46:21.605Z,3.30
2023-06-01T21:48:48.573Z,3.00
2023-06-01T21:51:15.791Z,3.30
2023-06-01T21:53:42.606Z,3.03
2023-06-01T21:56:09.451Z,2.47
2023-06-01T21:58:39.122Z,3.07
2023-06-01T22:01:06.959Z,2.55
2023-06-01T22:03:34.343Z,3.00
2023-06-01T22:06:01.673Z,2.93
2023-06-01T22:08:30.732Z,2.90
2023-06-01T22:10:57.404Z,2.83
2023-06-01T22:13:24.223Z,3.20
2023-06-01T22:15:50.968Z,3.50
2023-06-01T22:18:17.764Z,3.10
2023-06-01T22:20:44.479Z,4.00
2023-06-01T22:23:11.385Z,3.07
2023-06-01T22:25:39.162Z,3.40
2023-06-01T22:28:06.588Z,3.60
2023-06-01T22:30:33.630Z,3.17
2023-06-01T22:33:01.970Z,2.97
2023-06-01T22:35:28.908Z,2.53
2023-06-01T22:37:55.662Z,2.90
2023-06-01T22:40:22.386Z,3.30
2023-06-01T22:42:50.562Z,3.30
2023-06-01T22:45:19.209Z,3.20
2023-06-01T22:47:45.991Z,2.67
2023-06-01T22:50:13.228Z,4.40
2023-06-01T22:52:40.039Z,4.10
2023-06-01T22:55:07.250Z,3.63
2023-06-01T22:57:34.643Z,3.57
2023-06-01T23:00:01.571Z,2.80
2023-06-01T23:02:28.499Z,5.47
2023-06-01T23:04:55.424Z,3.80
2023-06-01T23:07:22.635Z,3.50
2023-06-01T23:09:50.342Z,4.07
2023-06-01T23:12:17.150Z,4.30
2023-06-01T23:14:43.951Z,5.07
2023-06-01T23:17:14.727Z,3.67
2023-06-01T23:19:43.001Z,3.40
2023-06-01T23:22:12.979Z,3.03
2023-06-01T23:24:40.217Z,7.05
2023-06-01T23:27:08.287Z,4.97
2023-06-01T23:29:36.013Z,3.07
2023-06-01T23:32:03.213Z,3.43
2023-06-01T23:34:30.219Z,3.50
2023-06-01T23:37:02.547Z,2.60
2023-06-01T23:39:30.367Z,3.23
2023-06-01T23:41:57.212Z,3.50
2023-06-01T23:44:24.112Z,3.37
2023-06-01T23:46:50.869Z,4.00
2023-06-01T23:49:17.761Z,5.90
2023-06-01T23:51:44.593Z,4.83
2023-06-01T23:54:11.942Z,3.57
2023-06-01T23:56:38.767Z,3.30
2023-06-01T23:59:05.601Z,4.33
